Wetterdaten: Samstag, 16.06.2012
Datum Zeit Temperatur Luftfeuchte Regen Wind Richtung Richtung Taupunkt Windchill Windben
16.06.2012 00:00 14,2 C 71 % 0,0 l/m 1,1 km/h (1 Bft) N 360 9,0 C 14,3 C 2,9 km/h (1 Bft)
16.06.2012 00:05 14,1 C 70 % 0,0 l/m 1,3 km/h (1 Bft) NO 45 8,7 C 14,2 C 0,0 km/h (0 Bft)
16.06.2012 00:10 14,0 C 70 % 0,0 l/m 1,1 km/h (1 Bft) O 90 8,6 C 14,2 C 0,0 km/h (0 Bft)
16.06.2012 00:15 14,2 C 71 % 0,0 l/m 1,0 km/h (0 Bft) O 90 9,0 C 14,1 C 1,8 km/h (1 Bft)
16.06.2012 00:20 14,3 C 70 % 0,0 l/m 0,8 km/h (0 Bft) N-NO 22 8,9 C 14,2 C 2,9 km/h (1 Bft)
16.06.2012 00:25 14,0 C 70 % 0,0 l/m 0,5 km/h (0 Bft) N 360 8,6 C 14,2 C 0,0 km/h (0 Bft)
16.06.2012 00:30 13,8 C 71 % 0,0 l/m 0,3 km/h (0 Bft) N-NO 22 8,6 C 13,9 C 0,0 km/h (0 Bft)
16.06.2012 00:35 13,8 C 71 % 0,0 l/m 0,3 km/h (0 Bft) N-NO 22 8,6 C 13,9 C 1,6 km/h (1 Bft)
16.06.2012 00:40 13,9 C 71 % 0,0 l/m 0,6 km/h (0 Bft) S 180 8,7 C 13,9 C 0,0 km/h (0 Bft)
16.06.2012 00:45 13,9 C 71 % 0,0 l/m 0,6 km/h (0 Bft) S 180 8,7 C 13,9 C 0,0 km/h (0 Bft)
16.06.2012 00:50 13,7 C 70 % 0,0 l/m 0,2 km/h (0 Bft) NO 45 8,3 C 13,6 C 0,0 km/h (0 Bft)
16.06.2012 00:55 13,5 C 71 % 0,0 l/m 0,0 km/h (0 Bft) N 360 8,3 C 13,4 C 0,0 km/h (0 Bft)
16.06.2012 01:00 13,2 C 73 % 0,0 l/m 0,2 km/h (0 Bft) S-SW 202 8,5 C 13,2 C 0,0 km/h (0 Bft)
16.06.2012 01:05 13,0 C 73 % 0,0 l/m 0,2 km/h (0 Bft) N-NW 337 8,3 C 13,1 C 0,0 km/h (0 Bft)
16.06.2012 01:10 12,8 C 74 % 0,0 l/m 0,0 km/h (0 Bft) O-SO 112 8,3 C 12,8 C 0,0 km/h (0 Bft)
16.06.2012 01:15 13,1 C 74 % 0,0 l/m 0,3 km/h (0 Bft) O 90 8,6 C 12,7 C 1,6 km/h (1 Bft)
16.06.2012 01:20 13,4 C 73 % 0,0 l/m 0,3 km/h (0 Bft) W-SW 247 8,7 C 12,9 C 0,0 km/h (0 Bft)
16.06.2012 01:25 13,6 C 73 % 0,0 l/m 0,8 km/h (0 Bft) W-NW 292 8,9 C 13,1 C 1,9 km/h (1 Bft)
16.06.2012 01:30 13,4 C 72 % 0,0 l/m 0,8 km/h (0 Bft) NO 45 8,5 C 13,3 C 4,0 km/h (1 Bft)
16.06.2012 01:35 13,1 C 72 % 0,0 l/m 0,3 km/h (0 Bft) S-SW 202 8,2 C 13,1 C 0,0 km/h (0 Bft)
16.06.2012 01:40 12,6 C 73 % 0,0 l/m 0,0 km/h (0 Bft) O 90 7,9 C 12,8 C 0,0 km/h (0 Bft)
16.06.2012 01:45 12,6 C 74 % 0,0 l/m 0,0 km/h (0 Bft) NO 45 8,1 C 12,5 C 0,0 km/h (0 Bft)
16.06.2012 01:50 12,9 C 75 % 0,0 l/m 0,0 km/h (0 Bft) NO 45 8,6 C 12,3 C 0,0 km/h (0 Bft)
16.06.2012 01:55 13,1 C 74 % 0,0 l/m 0,8 km/h (0 Bft) N 360 8,6 C 12,4 C 1,8 km/h (1 Bft)
16.06.2012 02:00 13,0 C 74 % 0,0 l/m 0,8 km/h (0 Bft) N-NO 22 8,5 C 12,5 C 0,0 km/h (0 Bft)
16.06.2012 02:05 12,7 C 75 % 0,0 l/m 0,2 km/h (0 Bft) N-NW 337 8,4 C 12,3 C 1,6 km/h (1 Bft)
16.06.2012 02:10 12,5 C 75 % 0,0 l/m 0,3 km/h (0 Bft) S 180 8,2 C 12,3 C 0,0 km/h (0 Bft)
16.06.2012 02:15 12,6 C 75 % 0,0 l/m 0,3 km/h (0 Bft) S-SO 157 8,3 C 12,3 C 0,0 km/h (0 Bft)
16.06.2012 02:20 12,5 C 76 % 0,0 l/m 0,2 km/h (0 Bft) S 180 8,4 C 12,3 C 0,0 km/h (0 Bft)
16.06.2012 02:25 12,0 C 76 % 0,0 l/m 0,0 km/h (0 Bft) S-SO 157 7,9 C 12,1 C 0,0 km/h (0 Bft)
16.06.2012 02:30 11,8 C 77 % 0,0 l/m 0,0 km/h (0 Bft) W-NW 292 7,9 C 11,8 C 0,0 km/h (0 Bft)
16.06.2012 02:35 11,5 C 77 % 0,0 l/m 0,0 km/h (0 Bft) S 180 7,6 C 11,7 C 0,0 km/h (0 Bft)
16.06.2012 02:40 11,7 C 77 % 0,0 l/m 0,0 km/h (0 Bft) W-NW 292 7,8 C 11,5 C 0,0 km/h (0 Bft)
16.06.2012 02:45 11,6 C 77 % 0,0 l/m 0,0 km/h (0 Bft) W-SW 247 7,7 C 11,5 C 0,0 km/h (0 Bft)
16.06.2012 02:50 11,4 C 77 % 0,0 l/m 0,0 km/h (0 Bft) O-SO 112 7,5 C 11,2 C 0,0 km/h (0 Bft)
16.06.2012 02:55 11,4 C 78 % 0,0 l/m 0,0 km/h (0 Bft) S-SW 202 7,7 C 11,1 C 0,0 km/h (0 Bft)
16.06.2012 03:00 11,3 C 78 % 0,0 l/m 0,0 km/h (0 Bft) N 360 7,6 C 11,0 C 0,0 km/h (0 Bft)
16.06.2012 03:05 11,1 C 78 % 0,0 l/m 0,0 km/h (0 Bft) S 180 7,4 C 11,0 C 0,0 km/h (0 Bft)
16.06.2012 03:10 11,1 C 79 % 0,0 l/m 0,0 km/h (0 Bft) W 270 7,6 C 10,9 C 0,0 km/h (0 Bft)
16.06.2012 03:15 11,1 C 79 % 0,0 l/m 0,0 km/h (0 Bft) S 180 7,6 C 10,8 C 0,0 km/h (0 Bft)
16.06.2012 03:20 10,8 C 79 % 0,0 l/m 0,0 km/h (0 Bft) S-SW 202 7,3 C 10,7 C 0,0 km/h (0 Bft)
16.06.2012 03:25 10,7 C 79 % 0,0 l/m 0,0 km/h (0 Bft) SO 135 7,2 C 10,7 C 0,0 km/h (0 Bft)
16.06.2012 03:30 10,9 C 80 % 0,0 l/m 0,0 km/h (0 Bft) N 360 7,6 C 10,7 C 0,0 km/h (0 Bft)
16.06.2012 03:35 10,9 C 80 % 0,0 l/m 0,0 km/h (0 Bft) N-NO 22 7,6 C 10,7 C 0,0 km/h (0 Bft)
16.06.2012 03:40 11,2 C 80 % 0,0 l/m 0,0 km/h (0 Bft) S 180 7,9 C 10,7 C 0,0 km/h (0 Bft)
16.06.2012 03:45 10,8 C 80 % 0,0 l/m 0,0 km/h (0 Bft) O-SO 112 7,5 C 10,7 C 0,0 km/h (0 Bft)
16.06.2012 03:50 10,9 C 81 % 0,0 l/m 0,5 km/h (0 Bft) N-NO 22 7,8 C 10,7 C 1,8 km/h (1 Bft)
16.06.2012 03:55 11,5 C 82 % 0,0 l/m 1,0 km/h (0 Bft) NO 45 8,5 C 11,0 C 0,0 km/h (0 Bft)
16.06.2012 04:00 11,2 C 82 % 0,0 l/m 1,0 km/h (0 Bft) N 360 8,2 C 11,0 C 2,6 km/h (1 Bft)
16.06.2012 04:05 11,4 C 82 % 0,0 l/m 1,0 km/h (0 Bft) N 360 8,4 C 11,0 C 1,9 km/h (1 Bft)
16.06.2012 04:10 11,5 C 81 % 0,0 l/m 1,1 km/h (1 Bft) S 180 8,4 C 11,1 C 1,6 km/h (1 Bft)
16.06.2012 04:15 11,4 C 80 % 0,0 l/m 1,0 km/h (0 Bft) N-NO 22 8,1 C 11,2 C 1,8 km/h (1 Bft)
16.06.2012 04:20 11,4 C 79 % 0,0 l/m 0,6 km/h (0 Bft) O-NO 67 7,9 C 11,4 C 0,0 km/h (0 Bft)
16.06.2012 04:25 11,5 C 79 % 0,0 l/m 0,2 km/h (0 Bft) W-NW 292 8,0 C 11,4 C 0,0 km/h (0 Bft)
16.06.2012 04:30 11,6 C 80 % 0,0 l/m 0,0 km/h (0 Bft) W-SW 247 8,3 C 11,4 C 0,0 km/h (0 Bft)
16.06.2012 04:35 11,4 C 79 % 0,0 l/m 0,0 km/h (0 Bft) O 90 7,9 C 11,3 C 0,0 km/h (0 Bft)
16.06.2012 04:40 11,4 C 79 % 0,0 l/m 0,2 km/h (0 Bft) O-SO 112 7,9 C 11,2 C 0,0 km/h (0 Bft)
16.06.2012 04:45 11,3 C 79 % 0,0 l/m 0,2 km/h (0 Bft) N 360 7,8 C 11,2 C 0,0 km/h (0 Bft)
16.06.2012 04:50 11,1 C 79 % 0,0 l/m 0,0 km/h (0 Bft) SO 135 7,6 C 11,0 C 0,0 km/h (0 Bft)
16.06.2012 04:55 11,0 C 79 % 0,0 l/m 0,0 km/h (0 Bft) W-SW 247 7,5 C 10,9 C 1,8 km/h (1 Bft)
16.06.2012 05:00 10,8 C 80 % 0,0 l/m 0,0 km/h (0 Bft) SO 135 7,5 C 10,7 C 0,0 km/h (0 Bft)
16.06.2012 05:05 10,9 C 82 % 0,0 l/m 0,0 km/h (0 Bft) N-NO 22 7,9 C 10,6 C 0,0 km/h (0 Bft)
16.06.2012 05:10 11,0 C 81 % 0,0 l/m 0,2 km/h (0 Bft) S 180 7,9 C 10,5 C 0,0 km/h (0 Bft)
16.06.2012 05:15 10,9 C 81 % 0,0 l/m 0,2 km/h (0 Bft) O-NO 67 7,8 C 10,5 C 0,0 km/h (0 Bft)
16.06.2012 05:20 11,2 C 81 % 0,0 l/m 0,0 km/h (0 Bft) NO 45 8,1 C 10,5 C 0,0 km/h (0 Bft)
16.06.2012 05:25 10,9 C 81 % 0,0 l/m 0,0 km/h (0 Bft) O-SO 112 7,8 C 10,5 C 0,0 km/h (0 Bft)
16.06.2012 05:30 10,6 C 81 % 0,0 l/m 0,0 km/h (0 Bft) N-NO 22 7,5 C 10,4 C 0,0 km/h (0 Bft)
16.06.2012 05:35 10,6 C 81 % 0,0 l/m 0,0 km/h (0 Bft) N 360 7,5 C 10,4 C 0,0 km/h (0 Bft)
16.06.2012 05:40 10,7 C 82 % 0,0 l/m 0,0 km/h (0 Bft) SO 135 7,8 C 10,4 C 0,0 km/h (0 Bft)
16.06.2012 05:45 10,7 C 82 % 0,0 l/m 0,0 km/h (0 Bft) NO 45 7,8 C 10,4 C 0,0 km/h (0 Bft)
16.06.2012 05:50 10,9 C 83 % 0,0 l/m 0,2 km/h (0 Bft) N-NW 337 8,1 C 10,7 C 0,0 km/h (0 Bft)
16.06.2012 05:55 11,0 C 83 % 0,0 l/m 0,3 km/h (0 Bft) W-NW 292 8,2 C 11,0 C 0,0 km/h (0 Bft)
16.06.2012 06:00 11,2 C 82 % 0,0 l/m 0,3 km/h (0 Bft) NO 45 8,2 C 11,2 C 0,0 km/h (0 Bft)
16.06.2012 06:05 11,4 C 82 % 0,0 l/m 0,2 km/h (0 Bft) W 270 8,4 C 11,6 C 0,0 km/h (0 Bft)
16.06.2012 06:10 12,7 C 80 % 0,0 l/m 0,0 km/h (0 Bft) S-SW 202 9,4 C 13,4 C 0,0 km/h (0 Bft)
16.06.2012 06:15 12,8 C 78 % 0,0 l/m 0,0 km/h (0 Bft) N-NO 22 9,6 C 14,6 C 0,0 km/h (0 Bft)
16.06.2012 06:20 13,1 C 76 % 0,0 l/m 0,0 km/h (0 Bft) S 180 10,2 C 16,0 C 0,0 km/h (0 Bft)
16.06.2012 06:25 13,3 C 74 % 0,0 l/m 0,0 km/h (0 Bft) SO 135 11,0 C 16,8 C 0,0 km/h (0 Bft)
16.06.2012 06:30 14,3 C 70 % 0,0 l/m 0,3 km/h (0 Bft) O-SO 112 11,0 C 17,6 C 1,9 km/h (1 Bft)
16.06.2012 06:35 15,2 C 67 % 0,0 l/m 0,5 km/h (0 Bft) NO 45 10,7 C 18,2 C 0,0 km/h (0 Bft)
16.06.2012 06:40 16,7 C 65 % 0,0 l/m 0,2 km/h (0 Bft) NO 45 11,2 C 19,2 C 0,0 km/h (0 Bft)
16.06.2012 06:45 17,5 C 63 % 0,0 l/m 0,2 km/h (0 Bft) SO 135 11,0 C 19,8 C 0,0 km/h (0 Bft)
16.06.2012 06:50 18,5 C 61 % 0,0 l/m 0,2 km/h (0 Bft) SO 135 11,1 C 20,7 C 0,0 km/h (0 Bft)
16.06.2012 06:55 19,1 C 59 % 0,0 l/m 0,0 km/h (0 Bft) NO 45 11,1 C 21,2 C 0,0 km/h (0 Bft)
16.06.2012 07:00 20,1 C 58 % 0,0 l/m 0,0 km/h (0 Bft) NO 45 11,6 C 22,0 C 0,0 km/h (0 Bft)
16.06.2012 07:05 20,6 C 58 % 0,0 l/m 0,2 km/h (0 Bft) S 180 12,0 C 22,5 C 3,1 km/h (1 Bft)
16.06.2012 07:10 21,6 C 56 % 0,0 l/m 0,3 km/h (0 Bft) N 360 12,6 C 22,9 C 2,1 km/h (1 Bft)
16.06.2012 07:15 21,9 C 55 % 0,0 l/m 0,5 km/h (0 Bft) N-NO 22 12,4 C 23,3 C 1,6 km/h (1 Bft)
16.06.2012 07:20 22,6 C 55 % 0,0 l/m 0,5 km/h (0 Bft) NO 45 13,1 C 23,9 C 2,3 km/h (1 Bft)
16.06.2012 07:25 23,4 C 52 % 0,0 l/m 0,5 km/h (0 Bft) O 90 13,0 C 24,3 C 0,0 km/h (0 Bft)
16.06.2012 07:30 23,3 C 49 % 0,0 l/m 0,5 km/h (0 Bft) N-NW 337 12,0 C 25,2 C 2,6 km/h (1 Bft)
16.06.2012 07:35 24,2 C 50 % 0,0 l/m 0,5 km/h (0 Bft) NW 315 13,1 C 25,4 C 0,0 km/h (0 Bft)
16.06.2012 07:40 24,4 C 47 % 0,0 l/m 0,5 km/h (0 Bft) W-NW 292 12,3 C 25,9 C 6,0 km/h (2 Bft)
16.06.2012 07:45 24,5 C 48 % 0,0 l/m 0,8 km/h (0 Bft) N 360 12,8 C 25,9 C 2,7 km/h (1 Bft)
16.06.2012 07:50 25,3 C 47 % 0,0 l/m 1,3 km/h (1 Bft) O 90 13,2 C 26,3 C 2,1 km/h (1 Bft)
16.06.2012 07:55 25,8 C 47 % 0,0 l/m 0,8 km/h (0 Bft) SO 135 13,6 C 26,8 C 0,0 km/h (0 Bft)
16.06.2012 08:00 25,9 C 46 % 0,0 l/m 0,2 km/h (0 Bft) N-NO 22 13,4 C 27,9 C 0,0 km/h (0 Bft)
16.06.2012 08:05 26,3 C 45 % 0,0 l/m 0,0 km/h (0 Bft) O-SO 112 13,4 C 28,5 C 1,9 km/h (1 Bft)
16.06.2012 08:10 26,4 C 44 % 0,0 l/m 0,0 km/h (0 Bft) W-NW 292 13,1 C 29,0 C 0,0 km/h (0 Bft)
16.06.2012 08:15 26,7 C 44 % 0,0 l/m 0,0 km/h (0 Bft) S 180 13,4 C 29,4 C 0,0 km/h (0 Bft)
16.06.2012 08:20 26,8 C 42 % 0,0 l/m 0,0 km/h (0 Bft) N-NO 22 12,8 C 29,9 C 0,0 km/h (0 Bft)
16.06.2012 08:25 27,0 C 41 % 0,0 l/m 0,0 km/h (0 Bft) N-NW 337 12,6 C 30,4 C 0,0 km/h (0 Bft)
16.06.2012 08:30 26,5 C 40 % 0,0 l/m 0,0 km/h (0 Bft) N-NO 22 12,8 C 30,8 C 0,0 km/h (0 Bft)
16.06.2012 08:35 26,1 C 39 % 0,0 l/m 0,0 km/h (0 Bft) NW 315 12,3 C 31,1 C 0,0 km/h (0 Bft)
16.06.2012 08:40 25,8 C 39 % 0,0 l/m 0,2 km/h (0 Bft) NW 315 12,6 C 31,2 C 1,6 km/h (1 Bft)
16.06.2012 08:45 25,5 C 40 % 0,0 l/m 0,2 km/h (0 Bft) N-NW 337 13,4 C 31,2 C 0,0 km/h (0 Bft)
16.06.2012 08:50 25,5 C 39 % 0,0 l/m 0,2 km/h (0 Bft) W-NW 292 13,8 C 31,6 C 0,0 km/h (0 Bft)
16.06.2012 08:55 25,5 C 39 % 0,0 l/m 0,0 km/h (0 Bft) S-SW 202 13,4 C 32,0 C 0,0 km/h (0 Bft)
16.06.2012 09:00 25,9 C 40 % 0,0 l/m 0,2 km/h (0 Bft) S-SW 202 14,1 C 31,8 C 1,8 km/h (1 Bft)
16.06.2012 09:05 26,0 C 39 % 0,0 l/m 0,5 km/h (0 Bft) N-NW 337 13,8 C 31,6 C 0,0 km/h (0 Bft)
16.06.2012 09:10 26,4 C 38 % 0,0 l/m 1,8 km/h (1 Bft) W-SW 247 13,6 C 31,2 C 4,2 km/h (1 Bft)
16.06.2012 09:15 26,6 C 36 % 0,0 l/m 2,4 km/h (1 Bft) NW 315 12,8 C 30,7 C 2,3 km/h (1 Bft)
16.06.2012 09:20 26,8 C 36 % 0,0 l/m 2,1 km/h (1 Bft) N 360 12,7 C 30,5 C 1,9 km/h (1 Bft)
16.06.2012 09:25 26,8 C 36 % 0,0 l/m 1,6 km/h (1 Bft) NW 315 12,2 C 30,8 C 4,2 km/h (1 Bft)
16.06.2012 09:30 27,1 C 36 % 0,0 l/m 1,4 km/h (1 Bft) N-NW 337 12,9 C 30,7 C 1,6 km/h (1 Bft)
16.06.2012 09:35 27,2 C 36 % 0,0 l/m 1,0 km/h (0 Bft) S-SO 157 12,2 C 31,2 C 0,0 km/h (0 Bft)
16.06.2012 09:40 27,5 C 35 % 0,0 l/m 1,9 km/h (1 Bft) W-SW 247 12,5 C 31,1 C 5,5 km/h (1 Bft)
16.06.2012 09:45 27,5 C 36 % 0,0 l/m 2,7 km/h (1 Bft) N-NW 337 12,3 C 30,8 C 3,2 km/h (1 Bft)
16.06.2012 09:50 27,5 C 35 % 0,0 l/m 2,4 km/h (1 Bft) W-SW 247 12,1 C 30,8 C 4,3 km/h (1 Bft)
16.06.2012 09:55 27,7 C 36 % 0,0 l/m 2,3 km/h (1 Bft) S 180 13,1 C 31,0 C 3,9 km/h (1 Bft)
16.06.2012 10:00 28,1 C 35 % 0,0 l/m 3,1 km/h (1 Bft) S-SW 202 13,1 C 30,9 C 6,6 km/h (2 Bft)
16.06.2012 10:05 28,1 C 35 % 0,0 l/m 3,4 km/h (1 Bft) W 270 12,8 C 30,7 C 4,0 km/h (1 Bft)
16.06.2012 10:10 28,0 C 35 % 0,0 l/m 3,7 km/h (1 Bft) W-SW 247 12,5 C 30,6 C 7,1 km/h (2 Bft)
16.06.2012 10:15 28,1 C 35 % 0,0 l/m 4,0 km/h (1 Bft) W-NW 292 12,8 C 30,2 C 4,8 km/h (1 Bft)
16.06.2012 10:20 28,1 C 36 % 0,0 l/m 4,3 km/h (1 Bft) W-NW 292 12,6 C 30,0 C 8,4 km/h (2 Bft)
16.06.2012 10:25 28,2 C 34 % 0,0 l/m 4,2 km/h (1 Bft) W-NW 292 11,1 C 30,1 C 6,8 km/h (2 Bft)
16.06.2012 10:30 28,2 C 36 % 0,0 l/m 4,5 km/h (1 Bft) NW 315 12,3 C 29,8 C 10,9 km/h (2 Bft)
16.06.2012 10:35 28,0 C 36 % 0,0 l/m 4,7 km/h (1 Bft) W 270 12,3 C 29,5 C 2,9 km/h (1 Bft)
16.06.2012 10:40 28,4 C 35 % 0,0 l/m 4,7 km/h (1 Bft) W-NW 292 11,4 C 29,8 C 7,9 km/h (2 Bft)
16.06.2012 10:45 28,4 C 36 % 0,0 l/m 4,7 km/h (1 Bft) W 270 12,1 C 29,6 C 8,0 km/h (2 Bft)
16.06.2012 10:50 28,4 C 37 % 0,0 l/m 4,8 km/h (1 Bft) W-SW 247 12,4 C 29,6 C 11,1 km/h (2 Bft)
16.06.2012 10:55 28,4 C 36 % 0,0 l/m 4,7 km/h (1 Bft) NW 315 12,0 C 29,7 C 6,9 km/h (2 Bft)
16.06.2012 11:00 27,6 C 37 % 0,0 l/m 5,6 km/h (1 Bft) W-SW 247 11,6 C 29,2 C 11,9 km/h (2 Bft)
16.06.2012 11:05 27,8 C 36 % 0,0 l/m 6,3 km/h (2 Bft) W 270 11,3 C 29,2 C 10,1 km/h (2 Bft)
16.06.2012 11:10 28,0 C 36 % 0,0 l/m 5,6 km/h (1 Bft) W-NW 292 11,5 C 29,2 C 5,3 km/h (1 Bft)
16.06.2012 11:15 28,4 C 36 % 0,0 l/m 5,5 km/h (1 Bft) W-SW 247 11,9 C 29,3 C 7,2 km/h (2 Bft)
16.06.2012 11:20 28,6 C 36 % 0,0 l/m 5,1 km/h (1 Bft) W 270 12,0 C 29,6 C 10,8 km/h (2 Bft)
16.06.2012 11:25 27,9 C 36 % 0,0 l/m 5,3 km/h (1 Bft) W-NW 292 11,4 C 29,5 C 6,4 km/h (2 Bft)
16.06.2012 11:30 27,7 C 36 % 0,0 l/m 5,3 km/h (1 Bft) W-SW 247 11,3 C 29,5 C 5,6 km/h (1 Bft)
16.06.2012 11:35 28,2 C 36 % 0,0 l/m 5,3 km/h (1 Bft) W 270 11,7 C 29,6 C 7,9 km/h (2 Bft)
16.06.2012 11:40 28,1 C 35 % 0,0 l/m 6,1 km/h (2 Bft) W-SW 247 11,2 C 29,4 C 14,3 km/h (3 Bft)
16.06.2012 11:45 28,5 C 37 % 0,0 l/m 6,6 km/h (2 Bft) W-SW 247 12,4 C 29,2 C 4,2 km/h (1 Bft)
16.06.2012 11:50 28,7 C 36 % 0,0 l/m 5,3 km/h (1 Bft) W 270 12,1 C 29,6 C 3,4 km/h (1 Bft)
16.06.2012 11:55 28,3 C 36 % 0,0 l/m 4,8 km/h (1 Bft) N-NW 337 11,8 C 29,8 C 8,2 km/h (2 Bft)
16.06.2012 12:00 28,8 C 35 % 0,0 l/m 5,5 km/h (1 Bft) W-NW 292 11,8 C 29,8 C 7,2 km/h (2 Bft)
16.06.2012 12:05 29,0 C 36 % 0,0 l/m 5,6 km/h (1 Bft) W-NW 292 12,4 C 29,6 C 6,0 km/h (2 Bft)
16.06.2012 12:10 29,0 C 34 % 0,0 l/m 5,8 km/h (2 Bft) W 270 11,5 C 29,7 C 10,5 km/h (2 Bft)
16.06.2012 12:15 29,9 C 36 % 0,0 l/m 5,1 km/h (1 Bft) W 270 13,2 C 29,8 C 4,7 km/h (1 Bft)
16.06.2012 12:20 29,5 C 33 % 0,0 l/m 5,3 km/h (1 Bft) N-NW 337 11,5 C 30,1 C 4,7 km/h (1 Bft)
16.06.2012 12:25 29,6 C 34 % 0,0 l/m 4,7 km/h (1 Bft) W-NW 292 12,1 C 30,2 C 8,9 km/h (2 Bft)
16.06.2012 12:30 29,7 C 35 % 0,0 l/m 4,7 km/h (1 Bft) S-SW 202 12,6 C 30,3 C 3,1 km/h (1 Bft)
16.06.2012 12:35 29,8 C 34 % 0,0 l/m 5,3 km/h (1 Bft) W 270 12,2 C 30,4 C 7,4 km/h (2 Bft)
16.06.2012 12:40 29,7 C 35 % 0,0 l/m 5,1 km/h (1 Bft) S 180 12,6 C 30,5 C 4,8 km/h (1 Bft)
16.06.2012 12:45 29,7 C 35 % 0,0 l/m 4,8 km/h (1 Bft) W 270 12,6 C 30,7 C 6,1 km/h (2 Bft)
16.06.2012 12:50 29,6 C 35 % 0,0 l/m 4,7 km/h (1 Bft) W-SW 247 12,5 C 30,9 C 8,2 km/h (2 Bft)
16.06.2012 12:55 29,6 C 34 % 0,0 l/m 5,3 km/h (1 Bft) W-NW 292 12,1 C 30,7 C 9,2 km/h (2 Bft)
16.06.2012 13:00 29,2 C 35 % 0,0 l/m 4,0 km/h (1 Bft) N 360 12,1 C 31,0 C 3,5 km/h (1 Bft)
16.06.2012 13:05 29,2 C 35 % 0,0 l/m 3,9 km/h (1 Bft) S-SW 202 12,1 C 31,3 C 7,4 km/h (2 Bft)
16.06.2012 13:10 30,2 C 34 % 0,0 l/m 4,2 km/h (1 Bft) W-SW 247 12,6 C 31,2 C 6,4 km/h (2 Bft)
16.06.2012 13:15 30,2 C 34 % 0,0 l/m 4,2 km/h (1 Bft) SW 225 12,6 C 31,2 C 8,9 km/h (2 Bft)
16.06.2012 13:20 29,5 C 34 % 0,0 l/m 4,8 km/h (1 Bft) W 270 12,0 C 31,2 C 6,4 km/h (2 Bft)
16.06.2012 13:25 29,1 C 34 % 0,0 l/m 4,7 km/h (1 Bft) W-SW 247 11,6 C 31,1 C 3,1 km/h (1 Bft)
16.06.2012 13:30 29,7 C 35 % 0,0 l/m 4,2 km/h (1 Bft) W-NW 292 12,6 C 30,9 C 3,7 km/h (1 Bft)
16.06.2012 13:35 29,9 C 34 % 0,0 l/m 4,5 km/h (1 Bft) W-NW 292 12,3 C 30,8 C 8,0 km/h (2 Bft)
16.06.2012 13:40 29,2 C 34 % 0,0 l/m 5,1 km/h (1 Bft) W-NW 292 11,7 C 30,5 C 7,4 km/h (2 Bft)
16.06.2012 13:45 29,7 C 34 % 0,0 l/m 5,3 km/h (1 Bft) NW 315 12,1 C 30,5 C 7,4 km/h (2 Bft)
16.06.2012 13:50 29,9 C 34 % 0,0 l/m 2,9 km/h (1 Bft) W 270 12,3 C 31,5 C 3,9 km/h (1 Bft)
16.06.2012 13:55 30,0 C 33 % 0,0 l/m 2,4 km/h (1 Bft) W-SW 247 11,9 C 31,8 C 1,6 km/h (1 Bft)
16.06.2012 14:00 29,9 C 33 % 0,0 l/m 3,5 km/h (1 Bft) N-NO 22 11,9 C 31,9 C 8,2 km/h (2 Bft)
16.06.2012 14:05 30,3 C 32 % 0,0 l/m 3,4 km/h (1 Bft) W-SW 247 11,7 C 32,0 C 4,5 km/h (1 Bft)
16.06.2012 14:10 30,2 C 32 % 0,0 l/m 3,7 km/h (1 Bft) S-SW 202 11,7 C 32,0 C 2,6 km/h (1 Bft)
16.06.2012 14:15 30,9 C 33 % 0,0 l/m 4,5 km/h (1 Bft) W 270 12,7 C 32,2 C 11,9 km/h (2 Bft)
16.06.2012 14:20 30,2 C 31 % 0,0 l/m 3,9 km/h (1 Bft) N-NO 22 11,2 C 32,4 C 4,2 km/h (1 Bft)
16.06.2012 14:25 30,5 C 32 % 0,0 l/m 4,0 km/h (1 Bft) W 270 11,9 C 32,4 C 7,7 km/h (2 Bft)
16.06.2012 14:30 30,2 C 31 % 0,0 l/m 4,3 km/h (1 Bft) N-NW 337 11,2 C 32,1 C 4,2 km/h (1 Bft)
16.06.2012 14:35 30,6 C 32 % 0,0 l/m 4,0 km/h (1 Bft) NO 45 12,0 C 32,3 C 1,8 km/h (1 Bft)
16.06.2012 14:40 31,9 C 32 % 0,0 l/m 1,8 km/h (1 Bft) W-SW 247 13,1 C 33,2 C 0,0 km/h (0 Bft)
16.06.2012 14:45 30,9 C 31 % 0,0 l/m 1,6 km/h (1 Bft) N-NW 337 11,8 C 33,6 C 4,5 km/h (1 Bft)
16.06.2012 14:50 30,3 C 31 % 0,0 l/m 4,0 km/h (1 Bft) S-SW 202 11,3 C 32,7 C 4,3 km/h (1 Bft)
16.06.2012 14:55 30,6 C 31 % 0,0 l/m 5,1 km/h (1 Bft) W 270 11,5 C 32,5 C 3,4 km/h (1 Bft)
16.06.2012 15:00 31,0 C 31 % 0,0 l/m 3,5 km/h (1 Bft) W-SW 247 11,9 C 32,7 C 1,9 km/h (1 Bft)
16.06.2012 15:05 30,8 C 30 % 0,0 l/m 2,6 km/h (1 Bft) N 360 11,2 C 33,1 C 2,9 km/h (1 Bft)
16.06.2012 15:10 30,3 C 30 % 0,0 l/m 2,1 km/h (1 Bft) S 180 10,8 C 33,1 C 6,8 km/h (2 Bft)
16.06.2012 15:15 30,4 C 31 % 0,0 l/m 2,3 km/h (1 Bft) W-NW 292 11,3 C 33,1 C 3,4 km/h (1 Bft)
16.06.2012 15:20 29,4 C 34 % 0,0 l/m 2,9 km/h (1 Bft) SO 135 11,9 C 32,7 C 2,1 km/h (1 Bft)
16.06.2012 15:25 31,1 C 33 % 0,0 l/m 2,4 km/h (1 Bft) O-SO 112 12,9 C 32,4 C 2,9 km/h (1 Bft)
16.06.2012 15:30 30,9 C 31 % 0,0 l/m 2,6 km/h (1 Bft) W 270 11,8 C 33,1 C 5,6 km/h (1 Bft)
16.06.2012 15:35 30,8 C 31 % 0,0 l/m 3,1 km/h (1 Bft) NO 45 11,7 C 33,1 C 6,9 km/h (2 Bft)
16.06.2012 15:40 31,6 C 31 % 0,0 l/m 3,1 km/h (1 Bft) O 90 12,4 C 33,3 C 3,4 km/h (1 Bft)
16.06.2012 15:45 32,1 C 32 % 0,0 l/m 3,2 km/h (1 Bft) O-SO 112 13,3 C 33,6 C 5,1 km/h (1 Bft)
16.06.2012 15:50 31,7 C 32 % 0,0 l/m 3,7 km/h (1 Bft) S-SW 202 12,9 C 33,6 C 6,0 km/h (2 Bft)
16.06.2012 15:55 31,2 C 32 % 0,0 l/m 4,7 km/h (1 Bft) S 180 12,5 C 33,3 C 3,9 km/h (1 Bft)
16.06.2012 16:00 31,5 C 31 % 0,0 l/m 5,5 km/h (1 Bft) S 180 12,3 C 33,0 C 6,0 km/h (2 Bft)
16.06.2012 16:05 31,6 C 31 % 0,0 l/m 5,1 km/h (1 Bft) SW 225 12,4 C 33,0 C 5,5 km/h (1 Bft)
16.06.2012 16:10 29,3 C 32 % 0,0 l/m 5,0 km/h (1 Bft) SO 135 10,9 C 32,2 C 4,2 km/h (1 Bft)
16.06.2012 16:15 29,6 C 33 % 0,0 l/m 4,0 km/h (1 Bft) W-NW 292 11,6 C 31,4 C 3,4 km/h (1 Bft)
16.06.2012 16:20 30,9 C 31 % 0,0 l/m 2,6 km/h (1 Bft) SO 135 11,8 C 32,0 C 3,2 km/h (1 Bft)
16.06.2012 16:25 30,8 C 33 % 0,0 l/m 2,4 km/h (1 Bft) O-SO 112 12,6 C 32,1 C 2,4 km/h (1 Bft)
16.06.2012 16:30 31,2 C 30 % 0,0 l/m 2,3 km/h (1 Bft) NO 45 11,5 C 33,3 C 0,0 km/h (0 Bft)
16.06.2012 16:35 31,4 C 29 % 0,0 l/m 1,4 km/h (1 Bft) N 360 11,2 C 34,0 C 3,1 km/h (1 Bft)
16.06.2012 16:40 30,8 C 30 % 0,0 l/m 1,6 km/h (1 Bft) SO 135 11,2 C 34,7 C 1,9 km/h (1 Bft)
16.06.2012 16:45 30,6 C 33 % 0,0 l/m 1,8 km/h (1 Bft) O 90 12,5 C 35,3 C 2,6 km/h (1 Bft)
16.06.2012 16:50 28,7 C 35 % 0,0 l/m 0,6 km/h (0 Bft) NO 45 11,7 C 34,3 C 0,0 km/h (0 Bft)
16.06.2012 16:55 28,0 C 36 % 0,0 l/m 0,3 km/h (0 Bft) N-NW 337 11,5 C 33,5 C 1,9 km/h (1 Bft)
16.06.2012 17:00 27,7 C 39 % 0,0 l/m 1,0 km/h (0 Bft) N 360 12,5 C 32,1 C 0,0 km/h (0 Bft)
16.06.2012 17:05 27,3 C 40 % 0,0 l/m 1,0 km/h (0 Bft) NO 45 12,5 C 31,6 C 1,6 km/h (1 Bft)
16.06.2012 17:10 26,2 C 42 % 0,0 l/m 1,3 km/h (1 Bft) N-NW 337 12,3 C 29,9 C 0,0 km/h (0 Bft)
16.06.2012 17:15 25,9 C 45 % 0,0 l/m 1,3 km/h (1 Bft) N 360 13,0 C 28,9 C 1,8 km/h (1 Bft)
16.06.2012 17:20 25,5 C 48 % 0,0 l/m 0,3 km/h (0 Bft) NO 45 13,7 C 28,1 C 0,0 km/h (0 Bft)
16.06.2012 17:25 25,9 C 48 % 0,0 l/m 0,6 km/h (0 Bft) N-NW 337 14,0 C 28,4 C 2,7 km/h (1 Bft)
16.06.2012 17:30 26,3 C 46 % 0,0 l/m 0,8 km/h (0 Bft) N 360 13,7 C 29,4 C 0,0 km/h (0 Bft)
16.06.2012 17:35 26,7 C 46 % 0,0 l/m 0,6 km/h (0 Bft) W-NW 292 14,1 C 30,6 C 0,0 km/h (0 Bft)
16.06.2012 17:40 27,1 C 43 % 0,0 l/m 0,8 km/h (0 Bft) O-SO 112 13,4 C 32,5 C 0,0 km/h (0 Bft)
16.06.2012 17:45 27,4 C 42 % 0,0 l/m 1,6 km/h (1 Bft) W-NW 292 13,3 C 33,2 C 2,6 km/h (1 Bft)
16.06.2012 17:50 27,5 C 41 % 0,0 l/m 1,9 km/h (1 Bft) NW 315 13,1 C 33,7 C 0,0 km/h (0 Bft)
16.06.2012 17:55 27,6 C 40 % 0,0 l/m 1,8 km/h (1 Bft) O 90 12,8 C 34,0 C 0,0 km/h (0 Bft)
16.06.2012 18:00 27,5 C 40 % 0,0 l/m 1,1 km/h (1 Bft) NO 45 12,7 C 33,9 C 0,0 km/h (0 Bft)
16.06.2012 18:05 27,8 C 40 % 0,0 l/m 1,4 km/h (1 Bft) W 270 12,9 C 34,0 C 3,7 km/h (1 Bft)
16.06.2012 18:10 27,8 C 40 % 0,0 l/m 1,4 km/h (1 Bft) O-SO 112 12,9 C 34,0 C 0,0 km/h (0 Bft)
16.06.2012 18:15 27,7 C 40 % 0,0 l/m 1,1 km/h (1 Bft) W-NW 292 12,9 C 34,5 C 3,7 km/h (1 Bft)
16.06.2012 18:20 27,9 C 38 % 0,0 l/m 1,0 km/h (0 Bft) S 180 12,2 C 34,5 C 1,6 km/h (1 Bft)
16.06.2012 18:25 28,1 C 36 % 0,0 l/m 1,3 km/h (1 Bft) O 90 11,6 C 34,5 C 0,0 km/h (0 Bft)
16.06.2012 18:30 28,4 C 35 % 0,0 l/m 1,0 km/h (0 Bft) S-SW 202 11,4 C 34,8 C 1,9 km/h (1 Bft)
16.06.2012 18:35 28,6 C 34 % 0,0 l/m 1,8 km/h (1 Bft) W-NW 292 11,2 C 34,6 C 3,5 km/h (1 Bft)
16.06.2012 18:40 28,6 C 33 % 0,0 l/m 3,5 km/h (1 Bft) S 180 10,7 C 33,8 C 4,8 km/h (1 Bft)
16.06.2012 18:45 28,7 C 33 % 0,0 l/m 3,7 km/h (1 Bft) S 180 10,8 C 33,6 C 6,1 km/h (2 Bft)
16.06.2012 18:50 28,4 C 33 % 0,0 l/m 3,9 km/h (1 Bft) S 180 10,6 C 33,1 C 3,2 km/h (1 Bft)
16.06.2012 18:55 28,2 C 35 % 0,0 l/m 4,3 km/h (1 Bft) S 180 11,3 C 32,7 C 1,8 km/h (1 Bft)
16.06.2012 19:00 28,1 C 35 % 0,0 l/m 4,2 km/h (1 Bft) S-SW 202 11,2 C 32,5 C 5,1 km/h (1 Bft)
16.06.2012 19:05 28,0 C 36 % 0,0 l/m 4,2 km/h (1 Bft) N-NO 22 11,5 C 32,2 C 6,9 km/h (2 Bft)
16.06.2012 19:10 27,6 C 38 % 0,0 l/m 3,5 km/h (1 Bft) N 360 12,0 C 32,1 C 2,1 km/h (1 Bft)
16.06.2012 19:15 27,4 C 38 % 0,0 l/m 2,6 km/h (1 Bft) N-NW 337 11,8 C 32,1 C 2,9 km/h (1 Bft)
16.06.2012 19:20 27,2 C 39 % 0,0 l/m 1,0 km/h (0 Bft) N 360 12,0 C 32,5 C 0,0 km/h (0 Bft)
16.06.2012 19:25 27,0 C 40 % 0,0 l/m 0,5 km/h (0 Bft) NW 315 12,2 C 32,6 C 4,5 km/h (1 Bft)
16.06.2012 19:30 26,8 C 40 % 0,0 l/m 0,8 km/h (0 Bft) S-SW 202 12,1 C 32,5 C 0,0 km/h (0 Bft)
16.06.2012 19:35 27,0 C 40 % 0,0 l/m 1,3 km/h (1 Bft) N-NO 22 12,2 C 32,5 C 2,9 km/h (1 Bft)
16.06.2012 19:40 26,7 C 40 % 0,0 l/m 0,6 km/h (0 Bft) N-NW 337 12,0 C 32,3 C 0,0 km/h (0 Bft)
16.06.2012 19:45 26,4 C 40 % 0,0 l/m 0,5 km/h (0 Bft) O 90 11,7 C 32,4 C 0,0 km/h (0 Bft)
16.06.2012 19:50 26,2 C 40 % 0,0 l/m 0,3 km/h (0 Bft) N-NW 337 11,5 C 32,0 C 1,9 km/h (1 Bft)
16.06.2012 19:55 26,3 C 40 % 0,0 l/m 0,3 km/h (0 Bft) W-NW 292 11,6 C 31,9 C 0,0 km/h (0 Bft)
16.06.2012 20:00 26,1 C 40 % 0,0 l/m 0,2 km/h (0 Bft) O-NO 67 11,4 C 31,7 C 0,0 km/h (0 Bft)
16.06.2012 20:05 25,9 C 43 % 0,0 l/m 0,2 km/h (0 Bft) NO 45 12,3 C 31,2 C 0,0 km/h (0 Bft)
16.06.2012 20:10 25,1 C 43 % 0,0 l/m 0,0 km/h (0 Bft) NW 315 11,6 C 29,9 C 0,0 km/h (0 Bft)
16.06.2012 20:15 25,0 C 43 % 0,0 l/m 0,0 km/h (0 Bft) N-NO 22 11,5 C 28,5 C 0,0 km/h (0 Bft)
16.06.2012 20:20 25,1 C 44 % 0,0 l/m 0,0 km/h (0 Bft) N 360 12,0 C 27,8 C 0,0 km/h (0 Bft)
16.06.2012 20:25 24,4 C 48 % 0,0 l/m 0,0 km/h (0 Bft) N 360 12,7 C 27,6 C 0,0 km/h (0 Bft)
16.06.2012 20:30 23,3 C 52 % 0,0 l/m 0,3 km/h (0 Bft) NO 45 12,9 C 26,8 C 1,9 km/h (1 Bft)
16.06.2012 20:35 22,6 C 56 % 0,0 l/m 1,0 km/h (0 Bft) N-NO 22 13,4 C 26,3 C 1,9 km/h (1 Bft)
16.06.2012 20:40 21,9 C 58 % 0,0 l/m 1,8 km/h (1 Bft) NO 45 13,3 C 25,5 C 2,9 km/h (1 Bft)
16.06.2012 20:45 21,8 C 59 % 0,0 l/m 1,9 km/h (1 Bft) NO 45 13,4 C 25,0 C 3,5 km/h (1 Bft)
16.06.2012 20:50 21,6 C 60 % 0,0 l/m 2,3 km/h (1 Bft) NO 45 13,5 C 24,1 C 1,9 km/h (1 Bft)
16.06.2012 20:55 21,1 C 61 % 0,0 l/m 2,1 km/h (1 Bft) NO 45 13,3 C 23,6 C 2,4 km/h (1 Bft)
16.06.2012 21:00 20,9 C 62 % 0,0 l/m 1,3 km/h (1 Bft) NO 45 13,3 C 22,9 C 1,6 km/h (1 Bft)
16.06.2012 21:05 20,8 C 62 % 0,0 l/m 1,0 km/h (0 Bft) SO 135 13,2 C 22,5 C 2,1 km/h (1 Bft)
16.06.2012 21:10 20,8 C 63 % 0,0 l/m 2,9 km/h (1 Bft) O-SO 112 13,5 C 22,0 C 3,9 km/h (1 Bft)
16.06.2012 21:15 21,0 C 61 % 0,0 l/m 5,1 km/h (1 Bft) O-SO 112 13,2 C 22,0 C 6,1 km/h (2 Bft)
16.06.2012 21:20 21,5 C 59 % 0,0 l/m 3,7 km/h (1 Bft) O-SO 112 13,1 C 22,3 C 0,0 km/h (0 Bft)
16.06.2012 21:25 21,2 C 59 % 0,0 l/m 2,7 km/h (1 Bft) O 90 12,9 C 22,1 C 4,5 km/h (1 Bft)
16.06.2012 21:30 21,2 C 59 % 0,0 l/m 3,2 km/h (1 Bft) N-NW 337 12,9 C 22,2 C 2,4 km/h (1 Bft)
16.06.2012 21:35 21,2 C 59 % 0,0 l/m 2,9 km/h (1 Bft) N-NO 22 12,9 C 22,0 C 0,0 km/h (0 Bft)
16.06.2012 21:40 21,0 C 59 % 0,0 l/m 1,6 km/h (1 Bft) N-NW 337 12,7 C 21,7 C 0,0 km/h (0 Bft)
16.06.2012 21:45 20,7 C 60 % 0,0 l/m 1,1 km/h (1 Bft) O 90 12,7 C 21,5 C 0,0 km/h (0 Bft)
16.06.2012 21:50 20,6 C 61 % 0,0 l/m 1,1 km/h (1 Bft) NO 45 12,8 C 21,3 C 2,1 km/h (1 Bft)
16.06.2012 21:55 20,3 C 61 % 0,0 l/m 1,3 km/h (1 Bft) O-SO 112 12,5 C 21,2 C 0,0 km/h (0 Bft)
16.06.2012 22:00 20,1 C 62 % 0,0 l/m 1,6 km/h (1 Bft) N-NO 22 12,6 C 20,9 C 3,5 km/h (1 Bft)
16.06.2012 22:05 20,2 C 63 % 0,0 l/m 1,8 km/h (1 Bft) SO 135 12,9 C 20,9 C 2,6 km/h (1 Bft)
16.06.2012 22:10 20,2 C 62 % 0,0 l/m 1,9 km/h (1 Bft) O-SO 112 12,7 C 20,9 C 0,0 km/h (0 Bft)
16.06.2012 22:15 20,2 C 62 % 0,0 l/m 1,4 km/h (1 Bft) O-NO 67 12,7 C 20,6 C 3,7 km/h (1 Bft)
16.06.2012 22:20 20,0 C 62 % 0,0 l/m 0,8 km/h (0 Bft) NO 45 12,5 C 20,4 C 0,0 km/h (0 Bft)
16.06.2012 22:25 19,8 C 62 % 0,0 l/m 0,8 km/h (0 Bft) N-NO 22 12,3 C 20,2 C 0,0 km/h (0 Bft)
16.06.2012 22:30 19,3 C 62 % 0,0 l/m 0,5 km/h (0 Bft) S-SO 157 11,8 C 20,0 C 0,0 km/h (0 Bft)
16.06.2012 22:35 19,6 C 63 % 0,0 l/m 0,6 km/h (0 Bft) W-NW 292 12,4 C 19,8 C 0,0 km/h (0 Bft)
16.06.2012 22:40 19,7 C 62 % 0,0 l/m 0,3 km/h (0 Bft) O-SO 112 12,2 C 19,7 C 0,0 km/h (0 Bft)
16.06.2012 22:45 19,3 C 63 % 0,0 l/m 0,5 km/h (0 Bft) N 360 12,1 C 19,6 C 0,0 km/h (0 Bft)
16.06.2012 22:50 19,6 C 62 % 0,0 l/m 0,6 km/h (0 Bft) N-NO 22 12,1 C 19,5 C 0,0 km/h (0 Bft)
16.06.2012 22:55 19,4 C 62 % 0,0 l/m 0,3 km/h (0 Bft) O-SO 112 11,9 C 19,4 C 0,0 km/h (0 Bft)
16.06.2012 23:00 19,3 C 62 % 0,0 l/m 0,5 km/h (0 Bft) NO 45 11,8 C 19,3 C 0,0 km/h (0 Bft)
16.06.2012 23:05 18,9 C 63 % 0,0 l/m 0,3 km/h (0 Bft) O-SO 112 11,7 C 19,2 C 0,0 km/h (0 Bft)
16.06.2012 23:10 19,0 C 63 % 0,0 l/m 0,3 km/h (0 Bft) O-NO 67 11,8 C 19,1 C 0,0 km/h (0 Bft)
16.06.2012 23:15 19,1 C 62 % 0,0 l/m 0,5 km/h (0 Bft) SW 225 11,6 C 19,2 C 4,8 km/h (1 Bft)
16.06.2012 23:20 19,2 C 62 % 0,0 l/m 0,3 km/h (0 Bft) NO 45 11,7 C 19,2 C 0,0 km/h (0 Bft)
16.06.2012 23:25 19,1 C 62 % 0,0 l/m 0,3 km/h (0 Bft) NO 45 11,6 C 19,1 C 0,0 km/h (0 Bft)
16.06.2012 23:30 19,2 C 61 % 0,0 l/m 0,2 km/h (0 Bft) NO 45 11,5 C 19,0 C 0,0 km/h (0 Bft)
16.06.2012 23:35 19,1 C 61 % 0,0 l/m 0,5 km/h (0 Bft) NO 45 11,4 C 19,0 C 3,4 km/h (1 Bft)
16.06.2012 23:40 19,0 C 61 % 0,0 l/m 0,5 km/h (0 Bft) S 180 11,3 C 19,1 C 0,0 km/h (0 Bft)
16.06.2012 23:45 18,7 C 63 % 0,0 l/m 0,5 km/h (0 Bft) W-SW 247 11,5 C 19,2 C 3,2 km/h (1 Bft)
16.06.2012 23:50 18,4 C 65 % 0,0 l/m 0,5 km/h (0 Bft) NO 45 11,7 C 18,7 C 0,0 km/h (0 Bft)
16.06.2012 23:55 18,4 C 64 % 0,0 l/m 0,5 km/h (0 Bft) O-SO 112 11,5 C 18,5 C 0,0 km/h (0 Bft)
_ Min-Zeit 05:35 16:35 - 20:25 - - 03:25 05:45 23:55
Minimum _ 10,6 C 29 % - 0,0 km/h (0 Bft) - - 7,2 C 10,4 C 0,0 km/h (0 Bft)
_ Max-Zeit 15:45 05:55 23:55 11:45 - - 17:35 16:45 11:40
Maximum _ 32,1 C 83 % 0,0 l/m 6,6 km/h
W-SW (2 Bft)
- - 14,1 C 35,3 C 14,3 km/h
W-SW (3 Bft)
Durchschnitt _ 22,3 C 52 % #0,0 l/m 1,8 km/h (1 Bft) W - 11,2 C 24,1 C 2,4 km/h (1 Bft)